createdAt,value
2018-12-01T00:00:11.793Z,99.99
2018-12-01T00:01:11.781Z,99.99
2018-12-01T00:02:11.771Z,99.99
2018-12-01T00:03:11.763Z,99.99
2018-12-01T00:04:11.753Z,99.96
2018-12-01T00:05:11.739Z,99.99
2018-12-01T00:06:11.727Z,99.99
2018-12-01T00:07:11.719Z,99.99
2018-12-01T00:08:11.706Z,99.99
2018-12-01T00:09:11.696Z,99.99
2018-12-01T00:10:11.687Z,99.96
2018-12-01T00:11:11.678Z,99.96
2018-12-01T00:12:11.663Z,99.99
2018-12-01T00:13:11.654Z,99.99
2018-12-01T00:14:11.643Z,99.99
2018-12-01T00:15:11.633Z,99.99
2018-12-01T00:16:11.622Z,99.99
2018-12-01T00:17:11.614Z,99.99
2018-12-01T00:18:11.602Z,99.99
2018-12-01T00:19:11.595Z,99.70
2018-12-01T00:20:11.580Z,99.99
2018-12-01T00:21:11.571Z,99.99
2018-12-01T00:22:11.558Z,99.99
2018-12-01T00:23:11.547Z,99.99
2018-12-01T00:24:11.536Z,99.99
2018-12-01T00:25:11.526Z,99.96
2018-12-01T00:26:11.517Z,99.99
2018-12-01T00:27:11.503Z,99.99
2018-12-01T00:28:11.493Z,99.99
2018-12-01T00:29:11.489Z,99.99
2018-12-01T00:30:11.477Z,99.99
2018-12-01T00:31:11.461Z,99.99
2018-12-01T00:32:11.450Z,99.99
2018-12-01T00:33:11.442Z,99.99
2018-12-01T00:34:11.429Z,99.99
2018-12-01T00:35:11.418Z,99.99
2018-12-01T00:36:11.409Z,99.99
2018-12-01T00:37:11.396Z,99.99
2018-12-01T00:38:11.386Z,99.99
2018-12-01T00:39:11.385Z,99.99
2018-12-01T00:40:11.367Z,99.99
2018-12-01T00:41:11.355Z,99.99
2018-12-01T00:42:11.344Z,99.99
2018-12-01T00:43:11.335Z,99.99
2018-12-01T00:44:11.322Z,99.99
2018-12-01T00:45:11.313Z,99.99
2018-12-01T00:46:11.301Z,99.96
2018-12-01T00:47:11.290Z,99.99
2018-12-01T00:48:11.281Z,99.86
2018-12-01T00:49:11.274Z,99.99
2018-12-01T00:50:11.259Z,99.99
2018-12-01T00:51:11.249Z,99.99
2018-12-01T00:52:11.237Z,99.99
2018-12-01T00:53:11.226Z,99.76
2018-12-01T00:54:11.216Z,99.99
2018-12-01T00:55:11.207Z,99.99
2018-12-01T00:56:11.195Z,99.99
2018-12-01T00:57:11.184Z,99.99
2018-12-01T00:58:11.180Z,99.99
2018-12-01T00:59:11.165Z,99.99
2018-12-01T01:00:11.152Z,99.99
2018-12-01T01:01:11.142Z,99.99
2018-12-01T01:02:11.131Z,99.99
2018-12-01T01:03:11.124Z,99.99
2018-12-01T01:04:11.108Z,99.99
2018-12-01T01:05:11.100Z,99.99
2018-12-01T01:06:11.088Z,99.99
2018-12-01T01:07:11.077Z,99.99
2018-12-01T01:08:11.071Z,99.99
2018-12-01T01:09:11.057Z,99.99
2018-12-01T01:10:11.045Z,99.99
2018-12-01T01:11:11.035Z,99.99
2018-12-01T01:12:11.024Z,99.99
2018-12-01T01:13:11.015Z,99.99
2018-12-01T01:14:11.003Z,99.99
2018-12-01T01:15:10.994Z,99.99
2018-12-01T01:16:10.983Z,99.99
2018-12-01T01:17:10.972Z,99.99
2018-12-01T01:18:10.960Z,99.99
2018-12-01T01:19:10.949Z,99.99
2018-12-01T01:20:10.938Z,99.99
2018-12-01T01:21:10.929Z,99.99
2018-12-01T01:22:10.921Z,99.99
2018-12-01T01:23:10.911Z,99.99
2018-12-01T01:24:10.897Z,99.99
2018-12-01T01:25:10.887Z,99.99
2018-12-01T01:26:10.875Z,99.99
2018-12-01T01:27:10.866Z,99.99
2018-12-01T01:28:10.859Z,99.99
2018-12-01T01:29:10.844Z,99.99
2018-12-01T01:30:10.834Z,99.99
2018-12-01T01:31:10.822Z,99.99
2018-12-01T01:32:10.812Z,99.99
2018-12-01T01:33:10.800Z,99.99
2018-12-01T01:34:10.790Z,99.99
2018-12-01T01:35:10.779Z,99.99
2018-12-01T01:36:10.771Z,99.99
2018-12-01T01:37:10.759Z,99.99
2018-12-01T01:38:10.747Z,99.99
2018-12-01T01:39:10.738Z,99.99
2018-12-01T01:40:10.728Z,99.99
2018-12-01T01:41:10.723Z,99.99
2018-12-01T01:42:10.708Z,99.99
2018-12-01T01:43:10.694Z,99.99
2018-12-01T01:44:10.684Z,99.99
2018-12-01T01:45:10.675Z,99.99
2018-12-01T01:46:10.663Z,99.99
2018-12-01T01:47:10.652Z,99.99
2018-12-01T01:48:10.645Z,99.99
2018-12-01T01:49:10.631Z,99.99
2018-12-01T01:50:10.620Z,99.99
2018-12-01T01:51:10.609Z,99.99
2018-12-01T01:52:10.598Z,99.99
2018-12-01T01:53:10.589Z,99.99
2018-12-01T01:54:10.578Z,99.99
2018-12-01T01:55:10.567Z,99.99
2018-12-01T01:56:10.562Z,99.99
2018-12-01T01:57:10.546Z,99.99
2018-12-01T01:58:10.536Z,99.99
2018-12-01T01:59:10.529Z,99.99
2018-12-01T02:00:10.514Z,99.99
2018-12-01T02:01:10.504Z,99.99
2018-12-01T02:02:10.492Z,99.99
2018-12-01T02:03:10.482Z,99.99
2018-12-01T02:04:10.473Z,99.99
2018-12-01T02:05:10.463Z,99.99
2018-12-01T02:06:10.451Z,99.99
2018-12-01T02:07:10.440Z,99.99
2018-12-01T02:08:10.429Z,99.99
2018-12-01T02:09:10.424Z,99.99
2018-12-01T02:10:10.407Z,99.99
2018-12-01T02:11:10.395Z,99.99
2018-12-01T02:12:10.386Z,99.99
2018-12-01T02:13:10.376Z,99.99
2018-12-01T02:14:10.364Z,99.99
2018-12-01T02:15:10.355Z,99.99
2018-12-01T02:16:10.343Z,99.99
2018-12-01T02:17:10.334Z,99.99
2018-12-01T02:18:10.330Z,99.99
2018-12-01T02:19:10.313Z,99.99
2018-12-01T02:20:10.304Z,99.99
2018-12-01T02:21:10.291Z,99.99
2018-12-01T02:22:10.279Z,99.99
2018-12-01T02:23:10.270Z,99.99
2018-12-01T02:24:10.259Z,99.99
2018-12-01T02:25:10.247Z,99.99
2018-12-01T02:26:10.238Z,99.99
2018-12-01T02:27:10.227Z,99.99
2018-12-01T02:28:10.215Z,99.99
2018-12-01T02:29:10.208Z,99.99
2018-12-01T02:30:10.196Z,99.99
2018-12-01T02:31:10.186Z,99.99
2018-12-01T02:32:10.176Z,99.99
2018-12-01T02:33:10.163Z,99.99
2018-12-01T02:34:10.153Z,99.99
2018-12-01T02:35:10.141Z,99.99
2018-12-01T02:36:10.131Z,99.99
2018-12-01T02:37:10.120Z,99.99
2018-12-01T02:38:10.110Z,99.99
2018-12-01T02:39:10.102Z,99.99
2018-12-01T02:40:10.089Z,99.99
2018-12-01T02:41:10.079Z,99.99
2018-12-01T02:42:10.068Z,99.99
2018-12-01T02:43:10.055Z,99.99
2018-12-01T02:44:10.046Z,99.99
2018-12-01T02:45:10.035Z,99.99
2018-12-01T02:46:10.026Z,99.99
2018-12-01T02:47:10.015Z,99.99
2018-12-01T02:48:10.011Z,99.99
2018-12-01T02:49:09.997Z,99.99
2018-12-01T02:50:09.985Z,99.99
2018-12-01T02:51:09.971Z,99.99
2018-12-01T02:52:09.965Z,99.99
2018-12-01T02:53:09.952Z,99.99
2018-12-01T02:54:09.940Z,99.99
2018-12-01T02:55:09.931Z,99.99
2018-12-01T02:56:09.919Z,99.99
2018-12-01T02:57:09.910Z,99.99
2018-12-01T02:58:09.897Z,99.99
2018-12-01T02:59:09.889Z,99.99
2018-12-01T03:00:09.876Z,99.99
2018-12-01T03:01:09.877Z,99.99
2018-12-01T03:02:09.857Z,99.99
2018-12-01T03:03:09.844Z,99.99
2018-12-01T03:04:09.833Z,99.99
2018-12-01T03:05:09.823Z,99.99
2018-12-01T03:06:09.815Z,99.99
2018-12-01T03:07:09.802Z,99.99
2018-12-01T03:08:09.793Z,99.99
2018-12-01T03:09:09.782Z,99.99
2018-12-01T03:10:09.771Z,99.99
2018-12-01T03:11:09.759Z,99.99
2018-12-01T03:12:09.751Z,99.99
2018-12-01T03:13:09.740Z,99.99
2018-12-01T03:14:09.729Z,99.99
2018-12-01T03:15:09.718Z,99.99
2018-12-01T03:16:09.706Z,99.99
2018-12-01T03:17:09.695Z,99.99
2018-12-01T03:18:13.642Z,99.99
2018-12-01T03:19:09.677Z,99.99
2018-12-01T03:20:09.662Z,99.99
2018-12-01T03:21:09.654Z,99.99
2018-12-01T03:22:09.643Z,99.99
2018-12-01T03:23:09.631Z,99.99
2018-12-01T03:24:09.620Z,99.99
2018-12-01T03:25:09.985Z,99.99
2018-12-01T03:26:09.599Z,99.99
2018-12-01T03:27:09.593Z,99.99
2018-12-01T03:28:09.577Z,99.99
2018-12-01T03:29:09.569Z,99.99
2018-12-01T03:30:09.560Z,99.99
2018-12-01T03:31:09.550Z,99.99
2018-12-01T03:32:09.539Z,99.99
2018-12-01T03:33:09.524Z,99.99
2018-12-01T03:34:09.514Z,99.99
2018-12-01T03:35:09.505Z,99.99
2018-12-01T03:36:09.493Z,99.99
2018-12-01T03:37:09.482Z,99.99
2018-12-01T03:38:09.471Z,99.99
2018-12-01T03:39:09.461Z,99.99
2018-12-01T03:40:09.451Z,99.99
2018-12-01T03:41:09.438Z,99.99
2018-12-01T03:42:09.427Z,99.99
2018-12-01T03:43:09.419Z,99.99
2018-12-01T03:44:09.409Z,99.99
2018-12-01T03:45:09.396Z,99.99
2018-12-01T03:46:09.387Z,99.99
2018-12-01T03:47:09.385Z,99.99
2018-12-01T03:48:09.363Z,99.99
2018-12-01T03:49:09.356Z,99.99
2018-12-01T03:50:09.346Z,99.99
2018-12-01T03:51:09.333Z,99.99
2018-12-01T03:52:09.323Z,99.99
2018-12-01T03:53:09.312Z,99.99
2018-12-01T03:54:09.301Z,99.99
2018-12-01T03:55:09.289Z,99.99
2018-12-01T03:56:09.286Z,99.99
2018-12-01T03:57:09.269Z,99.99
2018-12-01T03:58:09.256Z,99.99
2018-12-01T03:59:09.247Z,99.99
2018-12-01T04:00:09.236Z,99.99
2018-12-01T04:01:09.226Z,99.99
2018-12-01T04:02:09.215Z,99.99
2018-12-01T04:03:09.203Z,99.99
2018-12-01T04:04:10.196Z,99.99
2018-12-01T04:05:09.184Z,99.99
2018-12-01T04:06:09.178Z,99.99
2018-12-01T04:07:09.160Z,99.99
2018-12-01T04:08:09.151Z,99.99
2018-12-01T04:09:09.145Z,99.99
2018-12-01T04:10:09.131Z,99.99
2018-12-01T04:11:09.124Z,99.99
2018-12-01T04:12:09.116Z,99.99
2018-12-01T04:13:09.100Z,99.99
2018-12-01T04:14:09.086Z,99.99
2018-12-01T04:15:09.080Z,99.99
2018-12-01T04:16:09.065Z,99.99
2018-12-01T04:17:09.056Z,99.99
2018-12-01T04:18:09.044Z,99.99
2018-12-01T04:19:09.036Z,99.99
2018-12-01T04:20:09.022Z,99.99
2018-12-01T04:21:09.016Z,99.99
2018-12-01T04:22:09.003Z,99.99
2018-12-01T04:23:08.992Z,99.99
2018-12-01T04:24:08.981Z,99.99
2018-12-01T04:25:08.971Z,99.99
2018-12-01T04:26:08.963Z,99.99
2018-12-01T04:27:08.949Z,99.99
2018-12-01T04:28:08.940Z,99.99
2018-12-01T04:29:08.929Z,99.99
2018-12-01T04:30:08.915Z,99.99
2018-12-01T04:31:08.907Z,99.99
2018-12-01T04:32:08.899Z,99.99
2018-12-01T04:33:08.886Z,99.99
2018-12-01T04:34:08.876Z,99.99
2018-12-01T04:35:08.865Z,99.99
2018-12-01T04:36:08.855Z,99.99
2018-12-01T04:37:08.842Z,99.99
2018-12-01T04:38:08.834Z,99.99
2018-12-01T04:39:08.821Z,99.99
2018-12-01T04:40:08.811Z,99.99
2018-12-01T04:41:08.799Z,99.99
2018-12-01T04:42:08.790Z,99.99
2018-12-01T04:43:08.780Z,99.99
2018-12-01T04:44:08.769Z,99.99
2018-12-01T04:45:08.757Z,99.99
2018-12-01T04:46:08.748Z,99.99
2018-12-01T04:47:08.736Z,99.99
2018-12-01T04:48:08.726Z,99.99
2018-12-01T04:49:08.716Z,99.99
2018-12-01T04:50:08.704Z,99.99
2018-12-01T04:51:08.693Z,99.99
2018-12-01T04:52:08.688Z,99.99
2018-12-01T04:53:08.671Z,99.99
2018-12-01T04:54:08.661Z,99.99
2018-12-01T04:55:08.656Z,99.99
2018-12-01T04:56:08.639Z,99.99
2018-12-01T04:57:08.630Z,99.99
2018-12-01T04:58:08.620Z,99.99
2018-12-01T04:59:08.608Z,99.99
2018-12-01T05:00:08.597Z,99.99
2018-12-01T05:01:08.587Z,99.99
2018-12-01T05:02:08.576Z,99.99
2018-12-01T05:03:08.565Z,99.99
2018-12-01T05:04:08.555Z,99.99
2018-12-01T05:05:08.545Z,99.99
2018-12-01T05:06:08.534Z,99.99
2018-12-01T05:07:08.523Z,99.99
2018-12-01T05:08:08.513Z,99.99
2018-12-01T05:09:08.502Z,99.99
2018-12-01T05:10:08.492Z,99.99
2018-12-01T05:11:08.482Z,99.99
2018-12-01T05:12:08.469Z,99.99
2018-12-01T05:13:08.461Z,99.99
2018-12-01T05:14:08.449Z,99.99
2018-12-01T05:15:08.443Z,99.99
2018-12-01T05:16:08.428Z,99.99
2018-12-01T05:17:08.416Z,99.99
2018-12-01T05:18:08.408Z,99.99
2018-12-01T05:19:08.394Z,99.99
2018-12-01T05:20:08.384Z,99.99
2018-12-01T05:21:08.379Z,99.99
2018-12-01T05:22:08.363Z,99.99
2018-12-01T05:23:08.351Z,99.99
2018-12-01T05:24:08.343Z,99.99
2018-12-01T05:25:08.331Z,99.99
2018-12-01T05:26:08.323Z,99.99
2018-12-01T05:27:08.315Z,99.99
2018-12-01T05:28:08.310Z,99.99
2018-12-01T05:29:08.289Z,99.99
2018-12-01T05:30:08.281Z,99.99
2018-12-01T05:31:08.268Z,99.99
2018-12-01T05:32:08.257Z,99.99
2018-12-01T05:33:08.247Z,99.99
2018-12-01T05:34:08.235Z,99.99
2018-12-01T05:35:08.234Z,99.99
2018-12-01T05:36:08.213Z,99.99
2018-12-01T05:37:08.204Z,99.99
2018-12-01T05:38:08.195Z,99.99
2018-12-01T05:39:08.183Z,99.99
2018-12-01T05:40:08.170Z,99.99
2018-12-01T05:41:08.162Z,99.99
2018-12-01T05:42:08.149Z,99.99
2018-12-01T05:43:08.142Z,99.99
2018-12-01T05:44:08.130Z,99.99
2018-12-01T05:45:08.120Z,99.99
2018-12-01T05:46:08.107Z,99.99
2018-12-01T05:47:08.098Z,99.99
2018-12-01T05:48:08.085Z,99.99
2018-12-01T05:49:08.076Z,99.99
2018-12-01T05:50:08.065Z,99.99
2018-12-01T05:51:08.053Z,99.99
2018-12-01T05:52:08.043Z,99.99
2018-12-01T05:53:08.034Z,99.99
2018-12-01T05:54:08.022Z,99.99
2018-12-01T05:55:08.011Z,99.99
2018-12-01T05:56:08.002Z,99.99
2018-12-01T05:57:07.994Z,99.99
2018-12-01T05:58:07.979Z,99.99
2018-12-01T05:59:07.968Z,99.99
2018-12-01T06:00:07.959Z,99.99
2018-12-01T06:01:07.949Z,99.99
2018-12-01T06:02:07.936Z,99.99
2018-12-01T06:03:07.925Z,99.99
2018-12-01T06:04:07.916Z,99.99
2018-12-01T06:05:07.908Z,99.99
2018-12-01T06:06:07.896Z,99.99
2018-12-01T06:07:07.883Z,99.99
2018-12-01T06:08:07.883Z,99.99
2018-12-01T06:09:07.863Z,99.99
2018-12-01T06:10:07.850Z,99.99
2018-12-01T06:11:07.843Z,99.99
2018-12-01T06:12:07.833Z,99.99
2018-12-01T06:13:07.821Z,99.99
2018-12-01T06:14:07.809Z,99.99
2018-12-01T06:15:07.798Z,99.99
2018-12-01T06:16:07.788Z,99.99
2018-12-01T06:17:07.778Z,99.99
2018-12-01T06:18:07.766Z,99.99
2018-12-01T06:19:07.760Z,99.99
2018-12-01T06:20:07.743Z,99.99
2018-12-01T06:21:07.742Z,99.99
2018-12-01T06:22:07.723Z,99.99
2018-12-01T06:23:07.717Z,99.99
2018-12-01T06:24:07.703Z,99.99
2018-12-01T06:25:07.691Z,99.99
2018-12-01T06:26:07.683Z,99.99
2018-12-01T06:27:07.670Z,99.99
2018-12-01T06:28:07.665Z,99.99
2018-12-01T06:29:07.648Z,99.99
2018-12-01T06:30:07.637Z,99.99
2018-12-01T06:31:07.627Z,99.99
2018-12-01T06:32:07.618Z,99.99
2018-12-01T06:33:07.607Z,99.99
2018-12-01T06:34:07.598Z,99.99
2018-12-01T06:35:07.586Z,99.99
2018-12-01T06:36:07.573Z,99.99
2018-12-01T06:37:07.564Z,99.99
2018-12-01T06:38:07.557Z,99.99
2018-12-01T06:39:07.544Z,99.99
2018-12-01T06:40:07.533Z,99.99
2018-12-01T06:41:07.522Z,99.99
2018-12-01T06:42:07.514Z,99.99
2018-12-01T06:43:07.501Z,99.99
2018-12-01T06:44:07.490Z,99.99
2018-12-01T06:45:07.478Z,99.99
2018-12-01T06:46:07.478Z,99.99
2018-12-01T06:47:07.458Z,99.99
2018-12-01T06:48:07.448Z,99.99
2018-12-01T06:49:07.439Z,99.99
2018-12-01T06:50:07.425Z,99.99
2018-12-01T06:51:07.416Z,99.99
2018-12-01T06:52:07.405Z,99.99
2018-12-01T06:53:07.394Z,99.99
2018-12-01T06:54:07.383Z,99.99
2018-12-01T06:55:07.372Z,99.99
2018-12-01T06:56:07.361Z,99.99
2018-12-01T06:57:07.351Z,99.99
2018-12-01T06:58:07.344Z,99.99
2018-12-01T06:59:07.331Z,99.99
2018-12-01T07:00:07.321Z,99.99
2018-12-01T07:01:07.309Z,99.99
2018-12-01T07:02:07.302Z,99.99
2018-12-01T07:03:07.289Z,99.99
2018-12-01T07:04:07.277Z,99.99
2018-12-01T07:05:07.268Z,99.99
2018-12-01T07:06:07.256Z,99.99
2018-12-01T07:07:07.245Z,99.99
2018-12-01T07:08:07.235Z,99.99
2018-12-01T07:09:07.222Z,99.99
2018-12-01T07:10:07.215Z,99.99
2018-12-01T07:11:07.202Z,99.99
2018-12-01T07:12:07.192Z,99.99
2018-12-01T07:13:07.187Z,99.99
2018-12-01T07:14:07.172Z,99.99
2018-12-01T07:15:07.161Z,99.99
2018-12-01T07:16:07.148Z,99.99
2018-12-01T07:17:07.137Z,99.99
2018-12-01T07:18:07.127Z,99.99
2018-12-01T07:19:07.117Z,99.99
2018-12-01T07:20:07.105Z,99.99
2018-12-01T07:21:07.099Z,99.99
2018-12-01T07:22:07.084Z,99.99
2018-12-01T07:23:07.073Z,99.99
2018-12-01T07:24:07.063Z,99.99
2018-12-01T07:25:07.052Z,99.99
2018-12-01T07:26:07.041Z,99.99
2018-12-01T07:27:07.032Z,99.99
2018-12-01T07:28:07.019Z,99.99
2018-12-01T07:29:07.009Z,99.99
2018-12-01T07:30:07.001Z,99.99
2018-12-01T07:31:06.989Z,99.99
2018-12-01T07:32:06.979Z,99.99
2018-12-01T07:33:06.966Z,99.99
2018-12-01T07:34:06.957Z,99.99
2018-12-01T07:35:06.950Z,99.99
2018-12-01T07:36:06.937Z,99.99
2018-12-01T07:37:06.923Z,99.99
2018-12-01T07:38:06.915Z,99.99
2018-12-01T07:39:06.901Z,99.99
2018-12-01T07:40:06.892Z,99.99
2018-12-01T07:41:06.881Z,99.99
2018-12-01T07:42:06.870Z,99.99
2018-12-01T07:43:06.860Z,99.99
2018-12-01T07:44:06.849Z,99.99
2018-12-01T07:45:06.838Z,99.99
2018-12-01T07:46:06.829Z,99.99
2018-12-01T07:47:06.820Z,99.99
2018-12-01T07:48:06.808Z,99.99
2018-12-01T07:49:06.803Z,99.99
2018-12-01T07:50:06.788Z,99.99
2018-12-01T07:51:06.778Z,99.99
2018-12-01T07:52:06.765Z,99.99
2018-12-01T07:53:06.755Z,99.99
2018-12-01T07:54:06.743Z,99.99
2018-12-01T07:55:06.733Z,99.99
2018-12-01T07:56:06.723Z,99.99
2018-12-01T07:57:06.710Z,99.99
2018-12-01T07:58:06.700Z,99.99
2018-12-01T07:59:06.693Z,99.99
2018-12-01T08:00:06.682Z,99.99
2018-12-01T08:01:06.669Z,99.99
2018-12-01T08:02:06.665Z,99.99
2018-12-01T08:03:06.652Z,99.99
2018-12-01T08:04:06.640Z,99.99
2018-12-01T08:05:06.626Z,99.99
2018-12-01T08:06:06.616Z,99.99
2018-12-01T08:07:06.605Z,99.99
2018-12-01T08:08:06.593Z,99.99
2018-12-01T08:09:06.583Z,99.99
2018-12-01T08:10:06.572Z,99.99
2018-12-01T08:11:06.562Z,99.99
2018-12-01T08:12:06.550Z,99.99
2018-12-01T08:13:06.540Z,99.99
2018-12-01T08:14:06.529Z,99.99
2018-12-01T08:15:06.519Z,99.99
2018-12-01T08:16:06.509Z,99.99
2018-12-01T08:17:06.503Z,99.91
2018-12-01T08:18:06.488Z,99.99
2018-12-01T08:19:06.479Z,99.99
2018-12-01T08:20:06.495Z,99.99
2018-12-01T08:21:06.455Z,99.99
2018-12-01T08:22:06.444Z,99.87
2018-12-01T08:23:06.434Z,99.99
2018-12-01T08:24:06.427Z,99.81
2018-12-01T08:25:06.415Z,99.87
2018-12-01T08:26:06.400Z,99.87
2018-12-01T08:27:06.390Z,99.99
2018-12-01T08:28:06.389Z,99.99
2018-12-01T08:29:06.368Z,99.93
2018-12-01T08:30:06.360Z,99.93
2018-12-01T08:31:06.353Z,99.99
2018-12-01T08:32:06.338Z,99.93
2018-12-01T08:33:06.328Z,99.99
2018-12-01T08:34:06.316Z,99.82
2018-12-01T08:35:06.304Z,99.67
2018-12-01T08:36:06.298Z,99.46
2018-12-01T08:37:06.284Z,99.67
2018-12-01T08:38:06.272Z,99.05
2018-12-01T08:39:06.283Z,98.84
2018-12-01T08:40:06.256Z,98.32
2018-12-01T08:41:06.242Z,98.43
2018-12-01T08:42:06.245Z,98.74
2018-12-01T08:43:06.221Z,98.43
2018-12-01T08:44:06.212Z,98.43
2018-12-01T08:45:06.197Z,98.53
2018-12-01T08:46:06.190Z,98.32
2018-12-01T08:47:06.180Z,98.53
2018-12-01T08:48:06.166Z,98.48
2018-12-01T08:49:06.158Z,98.69
2018-12-01T08:50:06.145Z,98.69
2018-12-01T08:51:06.133Z,98.27
2018-12-01T08:52:06.123Z,98.07
2018-12-01T08:53:06.112Z,98.07
2018-12-01T08:54:06.102Z,98.07
2018-12-01T08:55:06.090Z,98.07
2018-12-01T08:56:06.083Z,98.13
2018-12-01T08:57:06.068Z,98.27
2018-12-01T08:58:06.060Z,97.44
2018-12-01T08:59:06.048Z,98.33
2018-12-01T09:00:06.037Z,97.50
2018-12-01T09:01:06.028Z,97.24
2018-12-01T09:02:06.015Z,97.44
2018-12-01T09:03:06.005Z,97.55
2018-12-01T09:04:05.993Z,97.50
2018-12-01T09:05:05.989Z,98.02
2018-12-01T09:06:05.976Z,97.81
2018-12-01T09:07:05.961Z,98.02
2018-12-01T09:08:05.951Z,96.83
2018-12-01T09:09:05.944Z,97.56
2018-12-01T09:10:05.935Z,97.04
2018-12-01T09:11:05.922Z,96.79
2018-12-01T09:12:05.922Z,95.86
2018-12-01T09:13:05.898Z,96.94
2018-12-01T09:14:05.896Z,95.54
2018-12-01T09:15:05.876Z,95.65
2018-12-01T09:16:05.864Z,96.21
2018-12-01T09:17:05.855Z,97.25
2018-12-01T09:18:05.845Z,97.04
2018-12-01T09:19:05.836Z,97.04
2018-12-01T09:20:05.823Z,97.56
2018-12-01T09:21:05.811Z,96.89
2018-12-01T09:22:05.803Z,96.17
2018-12-01T09:23:05.803Z,95.19
2018-12-01T09:24:05.779Z,95.09
2018-12-01T09:25:05.795Z,95.09
2018-12-01T09:26:05.773Z,95.71
2018-12-01T09:27:05.746Z,94.53
2018-12-01T09:28:05.735Z,93.33
2018-12-01T09:29:05.727Z,92.88
2018-12-01T09:30:05.716Z,92.47
2018-12-01T09:31:05.709Z,92.47
2018-12-01T09:32:05.696Z,92.05
2018-12-01T09:33:05.682Z,92.05
2018-12-01T09:34:05.671Z,90.81
2018-12-01T09:35:05.661Z,91.02
2018-12-01T09:36:05.651Z,92.05
2018-12-01T09:37:05.641Z,92.05
2018-12-01T09:38:05.629Z,92.01
2018-12-01T09:39:05.621Z,90.97
2018-12-01T09:40:05.607Z,90.97
2018-12-01T09:41:05.597Z,90.77
2018-12-01T09:42:05.587Z,91.49
2018-12-01T09:43:05.578Z,91.70
2018-12-01T09:44:05.564Z,91.08
2018-12-01T09:45:05.553Z,90.66
2018-12-01T09:46:05.543Z,92.26
2018-12-01T09:47:05.532Z,92.11
2018-12-01T09:48:05.522Z,92.53
2018-12-01T09:49:05.556Z,93.35
2018-12-01T09:50:05.570Z,92.63
2018-12-01T09:51:05.491Z,92.57
2018-12-01T09:52:05.478Z,92.43
2018-12-01T09:53:05.469Z,93.25
2018-12-01T09:54:05.457Z,93.25
2018-12-01T09:55:05.444Z,93.46
2018-12-01T09:56:05.434Z,93.40
2018-12-01T09:57:05.425Z,93.50
2018-12-01T09:58:05.414Z,93.04
2018-12-01T09:59:05.402Z,92.01
2018-12-01T10:00:05.396Z,92.01
2018-12-01T10:01:05.387Z,92.32
2018-12-01T10:02:05.369Z,92.11
2018-12-01T10:03:05.358Z,92.01
2018-12-01T10:04:05.347Z,91.80
2018-12-01T10:05:05.340Z,91.45
2018-12-01T10:06:05.335Z,91.03
2018-12-01T10:07:05.320Z,90.06
2018-12-01T10:08:05.304Z,89.71
2018-12-01T10:09:05.296Z,89.40
2018-12-01T10:10:05.313Z,89.77
2018-12-01T10:11:05.271Z,88.88
2018-12-01T10:12:05.261Z,89.46
2018-12-01T10:13:05.252Z,89.25
2018-12-01T10:14:05.239Z,90.04
2018-12-01T10:15:05.228Z,89.01
2018-12-01T10:16:05.217Z,88.28
2018-12-01T10:17:05.206Z,88.90
2018-12-01T10:18:05.200Z,88.78
2018-12-01T10:19:05.185Z,89.81
2018-12-01T10:20:05.176Z,90.64
2018-12-01T10:21:05.163Z,90.06
2018-12-01T10:22:05.151Z,91.72
2018-12-01T10:23:05.141Z,91.26
2018-12-01T10:24:05.133Z,91.16
2018-12-01T10:25:05.123Z,91.47
2018-12-01T10:26:05.108Z,91.94
2018-12-01T10:27:05.100Z,91.67
2018-12-01T10:28:05.088Z,91.26
2018-12-01T10:29:05.079Z,91.99
2018-12-01T10:30:05.066Z,91.57
2018-12-01T10:31:05.056Z,91.99
2018-12-01T10:32:05.043Z,91.99
2018-12-01T10:33:05.033Z,91.88
2018-12-01T10:34:05.023Z,91.36
2018-12-01T10:35:05.012Z,91.32
2018-12-01T10:36:05.004Z,92.15
2018-12-01T10:37:04.992Z,92.36
2018-12-01T10:38:04.979Z,91.80
2018-12-01T10:39:04.968Z,91.28
2018-12-01T10:40:04.960Z,90.97
2018-12-01T10:41:04.948Z,91.11
2018-12-01T10:42:04.942Z,91.17
2018-12-01T10:43:04.926Z,91.42
2018-12-01T10:44:04.915Z,90.66
2018-12-01T10:45:04.903Z,91.90
2018-12-01T10:46:04.891Z,91.80
2018-12-01T10:47:04.880Z,91.49
2018-12-01T10:48:04.869Z,90.87
2018-12-01T10:49:04.859Z,92.21
2018-12-01T10:50:04.851Z,91.03
2018-12-01T10:51:04.912Z,90.45
2018-12-01T10:52:04.825Z,91.90
2018-12-01T10:53:04.817Z,91.34
2018-12-01T10:54:04.808Z,91.65
2018-12-01T10:55:04.793Z,90.31
2018-12-01T10:56:04.783Z,90.62
2018-12-01T10:57:04.773Z,90.47
2018-12-01T10:58:04.761Z,90.58
2018-12-01T10:59:04.752Z,90.47
2018-12-01T11:00:04.743Z,91.40
2018-12-01T11:01:04.731Z,90.47
2018-12-01T11:02:04.718Z,90.47
2018-12-01T11:03:04.712Z,90.47
2018-12-01T11:04:04.697Z,90.26
2018-12-01T11:05:04.690Z,90.84
2018-12-01T11:06:04.678Z,89.92
2018-12-01T11:07:04.666Z,89.81
2018-12-01T11:08:04.683Z,90.22
2018-12-01T11:09:04.647Z,90.22
2018-12-01T11:10:04.634Z,89.92
2018-12-01T11:11:04.624Z,90.22
2018-12-01T11:12:04.611Z,89.54
2018-12-01T11:13:04.599Z,90.22
2018-12-01T11:14:04.595Z,90.33
2018-12-01T11:15:04.577Z,89.81
2018-12-01T11:16:04.568Z,88.84
2018-12-01T11:17:04.591Z,89.56
2018-12-01T11:18:04.545Z,87.66
2018-12-01T11:19:04.533Z,87.77
2018-12-01T11:20:04.532Z,88.12
2018-12-01T11:21:04.516Z,88.12
2018-12-01T11:22:04.504Z,88.08
2018-12-01T11:23:04.490Z,88.18
2018-12-01T11:24:04.505Z,88.14
2018-12-01T11:25:04.470Z,88.04
2018-12-01T11:26:04.461Z,87.73
2018-12-01T11:27:04.449Z,86.97
2018-12-01T11:28:04.439Z,85.83
2018-12-01T11:29:04.437Z,84.25
2018-12-01T11:30:04.415Z,84.45
2018-12-01T11:31:04.403Z,84.91
2018-12-01T11:32:04.392Z,86.29
2018-12-01T11:33:04.382Z,86.32
2018-12-01T11:34:04.373Z,88.08
2018-12-01T11:35:04.363Z,88.64
2018-12-01T11:36:04.366Z,88.64
2018-12-01T11:37:04.339Z,89.77
2018-12-01T11:38:04.331Z,89.71
2018-12-01T11:39:04.325Z,90.64
2018-12-01T11:40:04.319Z,90.33
2018-12-01T11:41:04.303Z,91.30
2018-12-01T11:42:04.294Z,90.78
2018-12-01T11:43:04.283Z,91.50
2018-12-01T11:44:04.268Z,90.26
2018-12-01T11:45:04.260Z,90.33
2018-12-01T11:46:04.248Z,90.39
2018-12-01T11:47:04.236Z,89.28
2018-12-01T11:48:04.237Z,87.38
2018-12-01T11:49:04.227Z,85.79
2018-12-01T11:50:04.207Z,85.59
2018-12-01T11:51:04.204Z,84.48
2018-12-01T11:52:04.182Z,83.59
2018-12-01T11:53:04.176Z,84.21
2018-12-01T11:54:04.157Z,84.31
2018-12-01T11:55:04.154Z,84.56
2018-12-01T11:56:04.148Z,85.69
2018-12-01T11:57:04.158Z,87.17
2018-12-01T11:58:04.114Z,87.69
2018-12-01T11:59:04.105Z,87.32
2018-12-01T12:00:04.094Z,87.52
2018-12-01T12:01:04.084Z,88.35
2018-12-01T12:02:04.081Z,89.07
2018-12-01T12:03:04.067Z,89.73
2018-12-01T12:04:04.051Z,89.22
2018-12-01T12:05:04.043Z,89.73
2018-12-01T12:06:04.028Z,89.94
2018-12-01T12:07:04.020Z,89.83
2018-12-01T12:08:04.011Z,90.49
2018-12-01T12:09:03.997Z,90.49
2018-12-01T12:10:03.990Z,90.49
2018-12-01T12:11:03.977Z,90.39
2018-12-01T12:12:04.521Z,90.59
2018-12-01T12:13:03.954Z,90.28
2018-12-01T12:14:04.449Z,90.39
2018-12-01T12:15:03.935Z,90.59
2018-12-01T12:16:03.923Z,91.11
2018-12-01T12:17:03.911Z,90.49
2018-12-01T12:18:03.901Z,90.49
2018-12-01T12:19:03.895Z,91.32
2018-12-01T12:20:03.885Z,91.11
2018-12-01T12:21:03.867Z,90.19
2018-12-01T12:22:03.854Z,91.42
2018-12-01T12:23:03.846Z,90.49
2018-12-01T12:24:03.835Z,90.49
2018-12-01T12:25:03.824Z,90.70
2018-12-01T12:26:03.811Z,91.07
2018-12-01T12:27:03.799Z,91.22
2018-12-01T12:28:03.786Z,91.01
2018-12-01T12:29:03.777Z,91.01
2018-12-01T12:30:03.765Z,91.22
2018-12-01T12:31:03.753Z,92.04
2018-12-01T12:32:03.743Z,90.80
2018-12-01T12:33:03.731Z,90.91
2018-12-01T12:34:03.722Z,90.59
2018-12-01T12:35:03.709Z,90.70
2018-12-01T12:36:03.702Z,91.48
2018-12-01T12:37:03.689Z,91.94
2018-12-01T12:38:03.680Z,91.83
2018-12-01T12:39:03.665Z,90.80
2018-12-01T12:40:03.658Z,91.22
2018-12-01T12:41:03.645Z,91.22
2018-12-01T12:42:03.635Z,91.83
2018-12-01T12:43:03.623Z,91.94
2018-12-01T12:44:03.611Z,91.73
2018-12-01T12:45:03.601Z,91.52
2018-12-01T12:46:03.608Z,91.63
2018-12-01T12:47:03.580Z,91.63
2018-12-01T12:48:03.569Z,91.42
2018-12-01T12:49:03.558Z,91.52
2018-12-01T12:50:03.550Z,92.04
2018-12-01T12:51:03.539Z,91.94
2018-12-01T12:52:03.527Z,92.86